createdAt,value
2022-12-24T00:00:47.197Z,95.55
2022-12-24T00:03:19.787Z,90.72
2022-12-24T00:05:52.479Z,83.37
2022-12-24T00:08:25.115Z,85.85
2022-12-24T00:10:57.469Z,95.80
2022-12-24T00:13:29.964Z,95.57
2022-12-24T00:16:02.671Z,95.42
2022-12-24T00:18:39.938Z,98.17
2022-12-24T00:21:09.613Z,89.83
2022-12-24T00:23:42.468Z,94.80
2022-12-24T00:26:15.585Z,88.10
2022-12-24T00:28:47.997Z,98.35
2022-12-24T00:31:21.114Z,91.15
2022-12-24T00:33:53.635Z,87.72
2022-12-24T00:36:26.158Z,89.37
2022-12-24T00:38:58.514Z,86.08
2022-12-24T00:41:31.701Z,83.60
2022-12-24T00:44:06.597Z,86.87
2022-12-24T00:46:41.706Z,91.53
2022-12-24T00:51:45.886Z,92.62
2022-12-24T00:54:18.355Z,91.87
2022-12-24T00:56:50.889Z,74.55
2022-12-24T00:59:23.477Z,86.65
2022-12-24T01:01:56.086Z,83.82
2022-12-24T01:04:46.393Z,89.20
2022-12-24T01:07:19.332Z,81.32
2022-12-24T01:09:52.473Z,84.72
2022-12-24T01:12:25.521Z,76.37
2022-12-24T01:14:57.846Z,88.37
2022-12-24T01:17:31.995Z,81.92
2022-12-24T01:20:05.625Z,87.33
2022-12-24T01:22:38.019Z,89.97
2022-12-24T01:25:11.052Z,85.35
2022-12-24T01:27:43.478Z,85.28
2022-12-24T01:30:16.039Z,79.87
2022-12-24T01:32:48.575Z,84.77
2022-12-24T01:35:21.130Z,88.50
2022-12-24T01:37:53.640Z,87.30
2022-12-24T01:40:45.175Z,81.80
2022-12-24T01:43:26.564Z,81.25
2022-12-24T01:46:08.157Z,79.37
2022-12-24T01:48:44.691Z,83.07
2022-12-24T01:51:43.975Z,79.90
2022-12-24T01:54:23.947Z,87.55
2022-12-24T01:57:06.333Z,83.62
2022-12-24T01:59:39.272Z,78.92
2022-12-24T02:02:11.744Z,79.20
2022-12-24T02:05:03.333Z,75.30
2022-12-24T02:07:36.167Z,79.47
2022-12-24T02:10:10.988Z,76.77
2022-12-24T02:12:43.934Z,76.15
2022-12-24T02:15:17.969Z,80.45
2022-12-24T02:18:18.038Z,73.28
2022-12-24T02:21:13.423Z,71.72
2022-12-24T02:24:29.453Z,71.55
2022-12-24T02:27:34.054Z,71.28
2022-12-24T02:30:32.863Z,69.95
2022-12-24T02:33:33.972Z,69.75
2022-12-24T02:36:13.185Z,67.47
2022-12-24T02:38:56.106Z,66.45
2022-12-24T02:41:33.181Z,70.42
2022-12-24T02:44:05.667Z,67.12
2022-12-24T02:46:38.140Z,64.22
2022-12-24T02:49:10.960Z,67.12
2022-12-24T02:51:43.357Z,58.95
2022-12-24T02:54:15.720Z,61.92
2022-12-24T02:57:23.721Z,61.53
2022-12-24T03:00:08.997Z,61.40
2022-12-24T03:02:52.143Z,58.02
2022-12-24T03:05:33.972Z,63.65
2022-12-24T03:08:30.475Z,61.23
2022-12-24T03:11:10.751Z,64.15
2022-12-24T03:13:44.080Z,59.95
2022-12-24T03:16:19.309Z,60.48
2022-12-24T03:18:51.906Z,61.15
2022-12-24T03:21:32.129Z,64.58
2022-12-24T03:24:04.691Z,58.92
2022-12-24T03:26:37.120Z,63.70
2022-12-24T03:29:10.107Z,63.38
2022-12-24T03:31:44.835Z,61.73
2022-12-24T03:34:17.444Z,64.75
2022-12-24T03:36:50.065Z,62.62
2022-12-24T03:39:23.326Z,60.75
2022-12-24T03:41:55.950Z,64.95
2022-12-24T03:44:28.582Z,65.57
2022-12-24T03:47:00.982Z,61.53
2022-12-24T03:49:33.672Z,67.17
2022-12-24T03:52:06.684Z,67.03
2022-12-24T03:54:39.269Z,71.45
2022-12-24T03:57:11.727Z,69.37
2022-12-24T03:59:44.663Z,70.40
2022-12-24T04:02:17.419Z,67.65
2022-12-24T04:04:50.024Z,71.25
2022-12-24T04:07:22.640Z,65.97
2022-12-24T04:09:55.595Z,68.33
2022-12-24T04:12:28.400Z,66.77
2022-12-24T04:15:00.791Z,65.25
2022-12-24T04:17:34.552Z,66.77
2022-12-24T04:20:08.328Z,66.15
2022-12-24T04:22:42.248Z,62.20
2022-12-24T04:25:15.612Z,58.78
2022-12-24T04:27:48.303Z,60.30
2022-12-24T04:30:20.852Z,59.33
2022-12-24T04:32:53.358Z,58.87
2022-12-24T04:35:25.768Z,63.28
2022-12-24T04:37:58.153Z,54.38
2022-12-24T04:40:30.859Z,59.15
2022-12-24T04:43:03.232Z,58.15
2022-12-24T04:45:36.387Z,60.78
2022-12-24T04:48:08.835Z,57.40
2022-12-24T04:50:41.735Z,60.48
2022-12-24T04:53:15.989Z,58.05
2022-12-24T04:55:48.476Z,60.00
2022-12-24T04:58:21.504Z,61.50
2022-12-24T05:00:54.076Z,58.08
2022-12-24T05:03:26.603Z,60.25
2022-12-24T05:06:12.110Z,64.90
2022-12-24T05:08:44.876Z,61.73
2022-12-24T05:11:17.540Z,62.00
2022-12-24T05:13:50.189Z,58.98
2022-12-24T05:16:23.137Z,62.73
2022-12-24T05:18:55.567Z,59.58
2022-12-24T05:21:28.095Z,61.53
2022-12-24T05:24:18.533Z,58.05
2022-12-24T05:26:55.145Z,55.90
2022-12-24T05:29:28.020Z,61.37
2022-12-24T05:32:00.497Z,61.15
2022-12-24T05:34:32.940Z,64.72
2022-12-24T05:37:05.282Z,62.35
2022-12-24T05:39:38.476Z,64.03
2022-12-24T05:42:10.923Z,62.80
2022-12-24T05:44:43.352Z,62.25
2022-12-24T05:47:16.855Z,68.15
2022-12-24T05:49:49.201Z,67.03
2022-12-24T05:52:22.253Z,65.20
2022-12-24T05:54:54.742Z,62.38
2022-12-24T05:57:27.178Z,57.70
2022-12-24T05:59:59.503Z,62.88
2022-12-24T06:02:32.040Z,64.67
2022-12-24T06:05:04.759Z,66.53
2022-12-24T06:07:37.339Z,65.52
2022-12-24T06:10:10.646Z,61.48
2022-12-24T06:12:43.487Z,65.52
2022-12-24T06:15:21.942Z,62.38
2022-12-24T06:17:50.058Z,63.85
2022-12-24T06:20:22.463Z,60.17
2022-12-24T06:22:55.161Z,61.33
2022-12-24T06:25:27.539Z,60.73
2022-12-24T06:28:00.076Z,60.15
2022-12-24T06:30:32.644Z,64.67
2022-12-24T06:33:05.375Z,61.48
2022-12-24T06:35:38.085Z,63.40
2022-12-24T06:38:10.945Z,65.78
2022-12-24T06:40:44.678Z,63.00
2022-12-24T06:43:18.406Z,62.33
2022-12-24T06:45:50.850Z,63.43
2022-12-24T06:48:23.308Z,62.70
2022-12-24T06:50:55.613Z,62.73
2022-12-24T06:53:28.028Z,65.90
2022-12-24T06:56:08.173Z,66.45
2022-12-24T06:58:40.877Z,65.00
2022-12-24T07:01:15.765Z,62.60
2022-12-24T07:03:48.296Z,64.90
2022-12-24T07:06:26.843Z,65.60
2022-12-24T07:08:59.359Z,62.70
2022-12-24T07:11:31.903Z,64.07
2022-12-24T07:14:04.716Z,66.72
2022-12-24T07:16:37.211Z,69.67
2022-12-24T07:19:09.753Z,64.87
2022-12-24T07:21:42.229Z,72.47
2022-12-24T07:24:14.837Z,64.10
2022-12-24T07:26:47.193Z,63.68
2022-12-24T07:29:19.754Z,73.97
2022-12-24T07:31:52.229Z,74.32
2022-12-24T07:34:25.454Z,71.55
2022-12-24T07:36:58.182Z,65.60
2022-12-24T07:39:30.707Z,70.40
2022-12-24T07:42:04.875Z,70.35
2022-12-24T07:44:38.292Z,66.53
2022-12-24T07:47:10.736Z,71.55
2022-12-24T07:49:43.133Z,70.30
2022-12-24T07:52:15.571Z,69.90
2022-12-24T07:54:48.446Z,74.17
2022-12-24T07:57:20.957Z,66.02
2022-12-24T07:59:53.466Z,65.70
2022-12-24T08:02:26.059Z,66.85
2022-12-24T08:04:58.667Z,72.25
2022-12-24T08:07:31.027Z,70.70
2022-12-24T08:10:03.502Z,68.90
2022-12-24T08:12:36.040Z,66.12
2022-12-24T08:15:09.461Z,62.83
2022-12-24T08:17:41.882Z,61.25
2022-12-24T08:20:16.181Z,68.65
2022-12-24T08:22:48.691Z,63.63
2022-12-24T08:25:21.779Z,69.17
2022-12-24T08:27:54.313Z,70.78
2022-12-24T08:30:26.709Z,73.62
2022-12-24T08:33:00.065Z,75.52
2022-12-24T08:35:32.638Z,73.52
2022-12-24T08:38:05.348Z,73.92
2022-12-24T08:40:37.798Z,78.47
2022-12-24T08:43:10.282Z,73.17
2022-12-24T08:45:42.960Z,74.75
2022-12-24T08:48:15.449Z,72.78
2022-12-24T08:50:48.012Z,71.25
2022-12-24T08:53:21.766Z,72.90
2022-12-24T08:55:56.337Z,73.02
2022-12-24T08:58:28.969Z,71.10
2022-12-24T09:01:01.596Z,72.85
2022-12-24T09:03:34.322Z,76.02
2022-12-24T09:06:08.027Z,74.50
2022-12-24T09:08:40.804Z,71.15
2022-12-24T09:11:17.983Z,74.42
2022-12-24T09:13:50.679Z,73.37
2022-12-24T09:16:23.129Z,78.17
2022-12-24T09:18:55.559Z,73.95
2022-12-24T09:21:28.386Z,80.40
2022-12-24T09:24:01.407Z,74.27
2022-12-24T09:26:34.183Z,70.87
2022-12-24T09:29:06.476Z,73.57
2022-12-24T09:31:39.918Z,75.50
2022-12-24T09:34:12.351Z,83.33
2022-12-24T09:36:46.336Z,85.12
2022-12-24T09:39:18.926Z,79.87
2022-12-24T09:42:25.383Z,76.72
2022-12-24T09:45:17.581Z,74.47
2022-12-24T09:47:56.224Z,72.20
2022-12-24T09:50:42.264Z,70.60
2022-12-24T09:53:22.229Z,77.08
2022-12-24T09:55:58.364Z,73.65
2022-12-24T09:58:40.953Z,85.50
2022-12-24T10:01:17.923Z,77.22
2022-12-24T10:03:50.357Z,79.75
2022-12-24T10:06:33.030Z,84.90
2022-12-24T10:09:10.752Z,73.70
2022-12-24T10:12:04.256Z,79.67
2022-12-24T10:15:09.786Z,79.90
2022-12-24T10:17:55.768Z,84.65
2022-12-24T10:20:44.987Z,76.62
2022-12-24T10:23:31.884Z,82.65
2022-12-24T10:26:21.093Z,75.32
2022-12-24T10:29:11.642Z,79.27
2022-12-24T10:32:10.529Z,81.45
2022-12-24T10:34:49.441Z,81.78
2022-12-24T10:37:26.488Z,82.17
2022-12-24T10:40:00.216Z,81.08
2022-12-24T10:42:53.723Z,80.70
2022-12-24T10:45:30.506Z,78.95
2022-12-24T10:48:12.084Z,84.05
2022-12-24T10:51:05.728Z,83.42
2022-12-24T10:54:00.553Z,83.05
2022-12-24T10:56:33.342Z,97.35
2022-12-24T10:59:05.788Z,81.72
2022-12-24T11:01:47.272Z,89.77
2022-12-24T11:04:32.621Z,80.05
2022-12-24T11:07:07.809Z,85.00
2022-12-24T11:09:43.516Z,86.75
2022-12-24T11:12:28.446Z,86.80
2022-12-24T11:15:05.037Z,79.67
2022-12-24T11:17:37.693Z,83.00
2022-12-24T11:20:21.708Z,72.97
2022-12-24T11:22:54.568Z,71.97
2022-12-24T11:25:31.926Z,81.53
2022-12-24T11:28:13.921Z,76.57
2022-12-24T11:31:06.975Z,79.60
2022-12-24T11:33:53.525Z,80.57
2022-12-24T11:36:27.774Z,79.03
2022-12-24T11:39:00.574Z,78.12
2022-12-24T11:41:39.705Z,88.17
2022-12-24T11:44:12.770Z,80.12
2022-12-24T11:46:47.364Z,82.95
2022-12-24T11:52:20.091Z,83.70
2022-12-24T11:55:24.055Z,87.88
2022-12-24T11:58:19.244Z,82.65
2022-12-24T12:00:52.682Z,77.25
2022-12-24T12:03:48.025Z,77.50
2022-12-24T12:06:28.852Z,79.42
2022-12-24T12:09:07.981Z,83.05
2022-12-24T12:11:41.513Z,86.20
2022-12-24T12:14:30.887Z,88.90
2022-12-24T12:17:19.839Z,79.30
2022-12-24T12:20:12.476Z,77.80
2022-12-24T12:23:11.051Z,77.90
2022-12-24T12:25:57.432Z,84.85
2022-12-24T12:29:07.045Z,80.47
2022-12-24T12:31:45.917Z,86.02
2022-12-24T12:34:33.942Z,79.87
2022-12-24T12:37:18.526Z,83.40
2022-12-24T12:39:50.893Z,84.37
2022-12-24T12:42:38.255Z,90.50
2022-12-24T12:45:38.136Z,84.50
2022-12-24T12:48:18.600Z,85.40
2022-12-24T12:51:09.975Z,83.78
2022-12-24T12:54:16.475Z,83.07
2022-12-24T12:56:52.489Z,78.45
2022-12-24T12:59:33.747Z,86.22
2022-12-24T13:02:42.803Z,88.35
2022-12-24T13:05:53.165Z,86.78
2022-12-24T13:09:11.505Z,87.70
2022-12-24T13:12:08.360Z,89.47
2022-12-24T13:15:14.594Z,89.00
2022-12-24T13:17:54.680Z,92.02
2022-12-24T13:20:34.517Z,95.38
2022-12-24T13:23:17.006Z,89.72
2022-12-24T13:25:52.529Z,86.15
2022-12-24T13:28:29.744Z,92.17
2022-12-24T13:31:23.686Z,87.60
2022-12-24T13:33:58.767Z,93.52
2022-12-24T13:36:58.665Z,99.28
2022-12-24T13:39:31.755Z,99.15
2022-12-24T13:42:04.100Z,94.97
2022-12-24T13:44:36.444Z,95.03
2022-12-24T13:47:25.345Z,99.60
2022-12-24T13:49:55.460Z,98.75
2022-12-24T13:52:30.953Z,100.05
2022-12-24T13:55:15.821Z,98.47
2022-12-24T13:58:05.202Z,105.15
2022-12-24T14:00:55.632Z,88.75
2022-12-24T14:03:40.440Z,93.55
2022-12-24T14:06:28.638Z,95.38
2022-12-24T14:09:11.049Z,97.12
2022-12-24T14:12:06.753Z,98.40
2022-12-24T14:14:42.254Z,101.33
2022-12-24T14:17:29.970Z,104.30
2022-12-24T14:20:03.255Z,94.20
2022-12-24T14:22:42.203Z,100.72
2022-12-24T14:25:23.240Z,96.72
2022-12-24T14:28:07.716Z,94.95
2022-12-24T14:30:40.082Z,96.95
2022-12-24T14:33:33.471Z,96.02
2022-12-24T14:36:06.166Z,107.78
2022-12-24T14:38:40.738Z,100.45
2022-12-24T14:41:33.328Z,93.42
2022-12-24T14:44:35.647Z,98.00
2022-12-24T14:47:22.374Z,102.65
2022-12-24T14:50:37.834Z,96.75
2022-12-24T14:53:48.985Z,98.07
2022-12-24T14:56:24.008Z,91.85
2022-12-24T14:58:58.425Z,87.20
2022-12-24T15:01:34.361Z,87.85
2022-12-24T15:04:13.775Z,95.32
2022-12-24T15:06:53.251Z,95.42
2022-12-24T15:09:29.781Z,97.05
2022-12-24T15:12:04.546Z,101.78
2022-12-24T15:14:41.942Z,97.70
2022-12-24T15:17:16.525Z,100.62
2022-12-24T15:22:31.159Z,81.22
2022-12-24T15:25:03.763Z,82.45
2022-12-24T15:27:37.745Z,87.10
2022-12-24T15:30:20.338Z,88.35
2022-12-24T15:32:57.229Z,96.47
2022-12-24T15:35:50.208Z,114.55
2022-12-24T15:38:34.233Z,180.78
2022-12-24T15:41:27.664Z,93.92
2022-12-24T15:44:04.454Z,90.67
2022-12-24T15:46:37.606Z,95.42
2022-12-24T15:49:14.457Z,98.00
2022-12-24T15:51:46.874Z,131.87
2022-12-24T15:54:22.306Z,113.22
2022-12-24T15:56:54.634Z,100.80
2022-12-24T15:59:38.643Z,103.90
2022-12-24T16:02:45.560Z,101.30
2022-12-24T16:05:34.104Z,107.00
2022-12-24T16:08:20.858Z,109.70
2022-12-24T16:11:09.867Z,99.92
2022-12-24T16:14:13.972Z,105.85
2022-12-24T16:16:52.950Z,107.05
2022-12-24T16:19:40.054Z,270.12
2022-12-24T16:22:26.707Z,112.75
2022-12-24T16:25:00.652Z,107.80
2022-12-24T16:30:05.428Z,96.97
2022-12-24T16:32:38.481Z,94.28
2022-12-24T16:35:29.973Z,101.70
2022-12-24T16:38:02.370Z,101.92
2022-12-24T16:40:34.894Z,101.22
2022-12-24T16:43:25.162Z,96.82
2022-12-24T16:46:03.474Z,101.55
2022-12-24T16:48:37.400Z,91.55
2022-12-24T16:51:10.075Z,107.78
2022-12-24T16:53:42.847Z,90.92
2022-12-24T16:56:16.925Z,95.85
2022-12-24T16:58:49.348Z,89.72
2022-12-24T17:01:22.254Z,91.50
2022-12-24T17:03:55.434Z,89.00
2022-12-24T17:06:28.066Z,89.37
2022-12-24T17:09:01.489Z,94.05
2022-12-24T17:11:35.067Z,91.43
2022-12-24T17:14:08.963Z,92.62
2022-12-24T17:16:42.097Z,91.12
2022-12-24T17:19:14.462Z,98.45
2022-12-24T17:21:48.956Z,87.10
2022-12-24T17:24:21.294Z,89.65
2022-12-24T17:26:54.216Z,91.80
2022-12-24T17:29:26.696Z,86.65
2022-12-24T17:31:59.125Z,84.17
2022-12-24T17:34:31.416Z,105.00
2022-12-24T17:37:04.218Z,95.62
2022-12-24T17:39:36.618Z,92.35
2022-12-24T17:42:09.027Z,94.95
2022-12-24T17:44:41.594Z,93.47
2022-12-24T17:47:14.307Z,94.35
2022-12-24T17:49:46.817Z,95.72
2022-12-24T17:52:19.347Z,97.17
2022-12-24T17:54:51.933Z,99.22
2022-12-24T17:57:24.430Z,103.80
2022-12-24T17:59:57.639Z,106.78
2022-12-24T18:02:30.479Z,104.78
2022-12-24T18:05:04.575Z,111.03
2022-12-24T18:07:37.626Z,107.58
2022-12-24T18:10:11.667Z,106.97
2022-12-24T18:12:45.423Z,110.17
2022-12-24T18:15:22.844Z,110.37
2022-12-24T18:17:56.179Z,109.52
2022-12-24T18:20:28.615Z,100.85
2022-12-24T18:23:01.126Z,106.30
2022-12-24T18:25:33.516Z,101.82
2022-12-24T18:28:06.248Z,100.50
2022-12-24T18:30:38.826Z,104.50
2022-12-24T18:33:11.311Z,109.42
2022-12-24T18:35:43.854Z,115.12
2022-12-24T18:38:17.250Z,111.68
2022-12-24T18:40:49.792Z,114.15
2022-12-24T18:43:22.787Z,190.77
2022-12-24T18:45:55.534Z,134.37
2022-12-24T18:48:28.186Z,116.10
2022-12-24T18:51:01.513Z,117.47
2022-12-24T18:53:34.306Z,112.50
2022-12-24T18:56:09.113Z,109.72
2022-12-24T18:58:42.457Z,108.07
2022-12-24T19:01:21.646Z,109.70
2022-12-24T19:03:54.214Z,111.45
2022-12-24T19:06:27.691Z,116.05
2022-12-24T19:09:01.498Z,105.05
2022-12-24T19:11:35.235Z,108.27
2022-12-24T19:14:08.478Z,107.43
2022-12-24T19:16:41.990Z,108.10
2022-12-24T19:19:14.473Z,105.32
2022-12-24T19:21:47.530Z,109.52
2022-12-24T19:24:20.546Z,109.00
2022-12-24T19:26:52.925Z,109.63
2022-12-24T19:29:25.878Z,98.67
2022-12-24T19:31:58.374Z,102.58
2022-12-24T19:34:30.887Z,107.80
2022-12-24T19:37:03.772Z,102.12
2022-12-24T19:39:37.027Z,105.87
2022-12-24T19:42:09.526Z,110.08
2022-12-24T19:44:42.039Z,100.75
2022-12-24T19:47:14.345Z,100.33
2022-12-24T19:49:46.740Z,104.72
2022-12-24T19:52:19.238Z,118.13
2022-12-24T19:54:51.872Z,106.80
2022-12-24T19:57:24.286Z,99.97
2022-12-24T19:59:57.344Z,104.43
2022-12-24T20:02:29.924Z,102.90
2022-12-24T20:05:02.398Z,103.17
2022-12-24T20:07:35.647Z,109.07
2022-12-24T20:10:09.507Z,110.30
2022-12-24T20:12:42.315Z,101.95
2022-12-24T20:15:14.616Z,101.10
2022-12-24T20:17:48.667Z,106.97
2022-12-24T20:20:22.260Z,110.03
2022-12-24T20:22:54.543Z,110.42
2022-12-24T20:25:26.895Z,104.65
2022-12-24T20:27:59.908Z,102.65
2022-12-24T20:30:32.729Z,106.87
2022-12-24T20:33:05.324Z,102.55
2022-12-24T20:35:38.882Z,105.47
2022-12-24T20:38:11.542Z,107.78
2022-12-24T20:40:47.153Z,104.70
2022-12-24T20:43:24.109Z,100.47
2022-12-24T20:45:56.943Z,107.65
2022-12-24T20:48:31.267Z,103.15
2022-12-24T20:51:25.570Z,105.45
2022-12-24T20:54:00.393Z,106.63
2022-12-24T20:56:33.000Z,102.82
2022-12-24T20:59:05.437Z,102.38
2022-12-24T21:01:39.076Z,102.78
2022-12-24T21:04:12.483Z,98.45
2022-12-24T21:06:45.086Z,104.30
2022-12-24T21:09:17.893Z,113.42
2022-12-24T21:11:50.441Z,97.47
2022-12-24T21:14:25.507Z,99.50
2022-12-24T21:16:58.483Z,101.72
2022-12-24T21:19:30.866Z,106.30
2022-12-24T21:22:04.580Z,103.65
2022-12-24T21:24:37.684Z,99.87
2022-12-24T21:27:10.624Z,99.52
2022-12-24T21:29:43.027Z,98.85
2022-12-24T21:32:15.543Z,99.58
2022-12-24T21:34:48.283Z,101.33
2022-12-24T21:37:21.554Z,95.00
2022-12-24T21:39:53.967Z,104.72
2022-12-24T21:42:26.715Z,101.22
2022-12-24T21:44:59.327Z,104.15
2022-12-24T21:47:31.837Z,99.42
2022-12-24T21:50:26.718Z,96.42
2022-12-24T21:52:58.466Z,99.87
2022-12-24T21:58:02.945Z,97.72
2022-12-24T22:00:37.045Z,99.60
2022-12-24T22:03:09.644Z,96.95
2022-12-24T22:05:42.464Z,92.08
2022-12-24T22:08:34.029Z,94.17
2022-12-24T22:11:24.975Z,93.40
2022-12-24T22:13:57.520Z,88.95
2022-12-24T22:16:30.502Z,84.40
2022-12-24T22:19:03.023Z,87.70
2022-12-24T22:21:36.607Z,93.40
2022-12-24T22:24:30.715Z,86.63
2022-12-24T22:27:04.101Z,87.90
2022-12-24T22:29:36.503Z,84.00
2022-12-24T22:32:08.967Z,87.37
2022-12-24T22:34:41.508Z,88.10
2022-12-24T22:37:13.945Z,85.65
2022-12-24T22:39:46.648Z,84.62
2022-12-24T22:42:19.253Z,83.82
2022-12-24T22:44:51.626Z,82.55
2022-12-24T22:47:24.686Z,81.92
2022-12-24T22:49:57.192Z,83.10
2022-12-24T22:52:29.563Z,84.28
2022-12-24T22:55:02.523Z,84.30
2022-12-24T22:57:35.141Z,85.20
2022-12-24T23:00:15.534Z,81.60
2022-12-24T23:02:48.266Z,81.63
2022-12-24T23:05:20.921Z,79.25
2022-12-24T23:07:53.759Z,80.20
2022-12-24T23:10:26.361Z,84.15
2022-12-24T23:13:16.640Z,78.78
2022-12-24T23:15:49.106Z,79.22
2022-12-24T23:18:21.560Z,76.37
2022-12-24T23:20:53.989Z,82.42
2022-12-24T23:23:29.641Z,79.27
2022-12-24T23:26:06.431Z,82.15
2022-12-24T23:28:39.668Z,79.05
2022-12-24T23:31:13.101Z,77.40
2022-12-24T23:33:45.620Z,76.25
2022-12-24T23:36:18.211Z,72.15
2022-12-24T23:38:51.590Z,75.85
2022-12-24T23:41:24.796Z,72.92
2022-12-24T23:43:57.308Z,77.92
2022-12-24T23:46:30.409Z,72.80
2022-12-24T23:49:03.246Z,71.77
2022-12-24T23:51:35.669Z,71.12
2022-12-24T23:54:08.224Z,70.65
2022-12-24T23:56:41.067Z,72.47
2022-12-24T23:59:13.813Z,67.82
